createdAt,value
2022-08-07T00:00:26.061Z,0.80
2022-08-07T00:02:55.898Z,0.80
2022-08-07T00:05:24.104Z,0.70
2022-08-07T00:08:00.116Z,0.70
2022-08-07T00:10:31.355Z,0.93
2022-08-07T00:13:03.168Z,0.75
2022-08-07T00:15:46.685Z,1.00
2022-08-07T00:18:24.267Z,0.88
2022-08-07T00:20:53.827Z,0.95
2022-08-07T00:23:23.460Z,0.90
2022-08-07T00:25:59.236Z,1.13
2022-08-07T00:28:34.133Z,1.00
2022-08-07T00:31:05.792Z,0.90
2022-08-07T00:33:35.533Z,0.90
2022-08-07T00:36:04.426Z,0.93
2022-08-07T00:38:36.575Z,0.70
2022-08-07T00:41:05.581Z,0.90
2022-08-07T00:43:59.053Z,1.10
2022-08-07T00:46:26.153Z,0.80
2022-08-07T00:48:54.029Z,0.70
2022-08-07T00:51:22.376Z,1.10
2022-08-07T00:53:57.679Z,0.70
2022-08-07T00:56:30.205Z,0.68
2022-08-07T00:58:58.878Z,0.90
2022-08-07T01:01:27.021Z,0.70
2022-08-07T01:04:00.213Z,0.80
2022-08-07T01:06:30.182Z,0.70
2022-08-07T01:09:01.288Z,0.70
2022-08-07T01:12:27.411Z,1.05
2022-08-07T01:14:17.874Z,0.80
2022-08-07T01:16:50.438Z,0.70
2022-08-07T01:19:22.527Z,0.70
2022-08-07T01:21:56.158Z,0.95
2022-08-07T01:24:31.901Z,0.90
2022-08-07T01:27:02.285Z,0.90
2022-08-07T01:29:34.262Z,1.00
2022-08-07T01:32:05.645Z,0.93
2022-08-07T01:34:47.249Z,1.55
2022-08-07T01:37:19.242Z,1.00
2022-08-07T01:39:49.792Z,0.90
2022-08-07T01:42:57.230Z,1.00
2022-08-07T01:45:37.303Z,0.80
2022-08-07T01:48:20.069Z,0.93
2022-08-07T01:50:58.215Z,1.02
2022-08-07T01:54:11.679Z,0.80
2022-08-07T01:56:25.174Z,0.90
2022-08-07T01:59:06.182Z,0.80
2022-08-07T02:01:59.970Z,0.70
2022-08-07T02:04:33.488Z,1.27
2022-08-07T02:07:05.068Z,1.00
2022-08-07T02:09:53.178Z,1.90
2022-08-07T02:12:31.039Z,1.00
2022-08-07T02:15:05.850Z,1.30
2022-08-07T02:17:41.800Z,1.70
2022-08-07T02:20:23.392Z,1.17
2022-08-07T02:22:59.685Z,0.90
2022-08-07T02:26:31.695Z,0.90
2022-08-07T02:28:25.298Z,0.75
2022-08-07T02:30:57.299Z,0.80
2022-08-07T02:33:32.726Z,0.93
2022-08-07T02:36:29.207Z,1.65
2022-08-07T02:39:00.195Z,0.70
2022-08-07T02:41:36.952Z,0.80
2022-08-07T02:44:06.471Z,1.00
2022-08-07T02:46:36.851Z,0.80
2022-08-07T02:49:05.659Z,0.70
2022-08-07T02:51:42.449Z,1.05
2022-08-07T02:54:20.963Z,0.77
2022-08-07T02:56:55.797Z,0.80
2022-08-07T02:59:27.682Z,0.80
2022-08-07T03:02:01.943Z,0.93
2022-08-07T03:04:31.339Z,0.82
2022-08-07T03:07:07.130Z,0.80
2022-08-07T03:09:44.510Z,0.70
2022-08-07T03:12:22.579Z,1.10
2022-08-07T03:15:07.826Z,1.00
2022-08-07T03:17:52.955Z,0.93
2022-08-07T03:20:21.948Z,0.70
2022-08-07T03:22:53.494Z,0.90
2022-08-07T03:25:23.747Z,0.90
2022-08-07T03:28:37.183Z,0.70
2022-08-07T03:30:48.803Z,0.90
2022-08-07T03:33:17.962Z,0.95
2022-08-07T03:35:50.715Z,0.85
2022-08-07T03:38:29.370Z,0.80
2022-08-07T03:41:01.376Z,1.05
2022-08-07T03:43:32.856Z,1.00
2022-08-07T03:46:03.449Z,0.80
2022-08-07T03:48:33.272Z,0.98
2022-08-07T03:51:15.078Z,0.90
2022-08-07T03:54:33.198Z,0.80
2022-08-07T03:56:40.099Z,0.80
2022-08-07T03:59:30.170Z,0.80
2022-08-07T04:01:58.403Z,1.13
2022-08-07T04:04:27.558Z,0.90
2022-08-07T04:07:07.592Z,0.98
2022-08-07T04:09:50.164Z,0.98
2022-08-07T04:12:28.748Z,0.80
2022-08-07T04:15:00.626Z,0.88
2022-08-07T04:18:58.262Z,1.00
2022-08-07T04:20:21.550Z,1.55
2022-08-07T04:22:53.739Z,0.80
2022-08-07T04:25:35.941Z,0.90
2022-08-07T04:28:10.204Z,0.95
2022-08-07T04:30:51.259Z,1.00
2022-08-07T04:33:28.888Z,1.20
2022-08-07T04:35:59.226Z,1.08
2022-08-07T04:38:29.646Z,0.93
2022-08-07T04:40:59.258Z,1.27
2022-08-07T04:44:09.965Z,1.10
2022-08-07T04:46:42.782Z,1.40
2022-08-07T04:49:39.682Z,0.80
2022-08-07T04:52:19.733Z,0.95
2022-08-07T04:55:00.750Z,0.85
2022-08-07T04:58:32.072Z,0.80
2022-08-07T05:00:31.658Z,0.98
2022-08-07T05:03:16.712Z,0.90
2022-08-07T05:05:57.156Z,0.90
2022-08-07T05:09:00.147Z,0.90
2022-08-07T05:11:58.228Z,0.82
2022-08-07T05:14:55.215Z,0.70
2022-08-07T05:17:12.251Z,1.00
2022-08-07T05:20:04.345Z,0.90
2022-08-07T05:22:39.965Z,0.70
2022-08-07T05:25:25.348Z,0.70
2022-08-07T05:28:16.379Z,0.60
2022-08-07T05:30:48.251Z,0.80
2022-08-07T05:33:17.987Z,1.02
2022-08-07T05:35:55.047Z,1.00
2022-08-07T05:38:59.608Z,0.73
2022-08-07T05:41:16.833Z,1.10
2022-08-07T05:46:39.217Z,0.98
2022-08-07T05:49:12.294Z,1.20
2022-08-07T05:54:30.082Z,0.90
2022-08-07T05:56:59.626Z,1.00
2022-08-07T05:59:28.492Z,0.82
2022-08-07T06:02:08.943Z,1.20
2022-08-07T06:04:43.037Z,1.10
2022-08-07T06:07:22.706Z,0.90
2022-08-07T06:10:05.316Z,1.10
2022-08-07T06:12:35.519Z,1.00
2022-08-07T06:15:05.510Z,1.20
2022-08-07T06:17:38.202Z,1.20
2022-08-07T06:20:12.598Z,1.13
2022-08-07T06:23:04.085Z,1.73
2022-08-07T06:25:54.647Z,1.20
2022-08-07T06:28:28.004Z,3.95
2022-08-07T06:30:58.320Z,1.60
2022-08-07T06:33:27.471Z,1.70
2022-08-07T06:36:06.655Z,1.58
2022-08-07T06:38:59.162Z,1.80
2022-08-07T06:42:00.571Z,1.83
2022-08-07T06:44:51.627Z,2.60
2022-08-07T06:47:21.266Z,3.17
2022-08-07T06:49:58.525Z,2.47
2022-08-07T06:52:35.564Z,2.00
2022-08-07T06:55:33.576Z,1.75
2022-08-07T06:58:04.278Z,1.80
2022-08-07T07:00:39.856Z,1.50
2022-08-07T07:03:14.408Z,1.42
2022-08-07T07:06:03.450Z,1.30
2022-08-07T07:08:35.705Z,1.90
2022-08-07T07:11:13.477Z,1.95
2022-08-07T07:13:58.388Z,2.03
2022-08-07T07:16:44.997Z,2.78
2022-08-07T07:19:56.001Z,2.80
2022-08-07T07:22:11.689Z,2.22
2022-08-07T07:25:13.936Z,2.00
2022-08-07T07:27:56.411Z,1.80
2022-08-07T07:30:38.266Z,1.90
2022-08-07T07:33:11.706Z,2.00
2022-08-07T07:36:03.962Z,1.52
2022-08-07T07:38:34.775Z,1.73
2022-08-07T07:41:08.609Z,2.03
2022-08-07T07:44:13.735Z,2.08
2022-08-07T07:46:40.493Z,2.00
2022-08-07T07:50:34.816Z,2.20
2022-08-07T07:52:12.779Z,1.90
2022-08-07T07:54:50.474Z,1.88
2022-08-07T07:57:50.348Z,1.65
2022-08-07T08:00:20.778Z,1.88
2022-08-07T08:03:04.992Z,1.85
2022-08-07T08:05:54.310Z,1.60
2022-08-07T08:08:36.064Z,1.70
2022-08-07T08:11:08.098Z,2.05
2022-08-07T08:13:53.352Z,1.63
2022-08-07T08:16:29.881Z,1.55
2022-08-07T08:19:09.928Z,1.75
2022-08-07T08:22:07.734Z,1.50
2022-08-07T08:25:04.829Z,1.50
2022-08-07T08:27:57.386Z,1.55
2022-08-07T08:30:34.828Z,1.50
2022-08-07T08:33:15.070Z,1.63
2022-08-07T08:35:49.682Z,1.67
2022-08-07T08:38:21.837Z,1.48
2022-08-07T08:41:03.416Z,1.70
2022-08-07T08:43:42.688Z,1.42
2022-08-07T08:46:35.149Z,1.92
2022-08-07T08:49:17.705Z,2.20
2022-08-07T08:52:14.324Z,1.15
2022-08-07T08:54:48.741Z,1.00
2022-08-07T08:57:27.209Z,1.13
2022-08-07T09:00:03.130Z,1.00
2022-08-07T09:02:40.347Z,0.80
2022-08-07T09:05:36.623Z,0.85
2022-08-07T09:08:28.369Z,0.90
2022-08-07T09:11:06.474Z,0.80
2022-08-07T09:13:44.283Z,1.00
2022-08-07T09:16:23.336Z,0.80
2022-08-07T09:19:51.268Z,1.00
2022-08-07T09:24:29.183Z,0.70
2022-08-07T09:25:17.269Z,0.80
2022-08-07T09:27:59.753Z,1.40
2022-08-07T09:30:44.160Z,0.90
2022-08-07T09:33:53.163Z,1.05
2022-08-07T09:36:27.030Z,0.90
2022-08-07T09:39:27.291Z,1.05
2022-08-07T09:42:07.812Z,0.88
2022-08-07T09:47:55.030Z,0.70
2022-08-07T09:48:03.011Z,0.77
2022-08-07T09:50:45.301Z,0.80
2022-08-07T09:53:16.641Z,0.88
2022-08-07T09:56:04.973Z,0.70
2022-08-07T09:59:14.587Z,0.98
2022-08-07T10:01:59.470Z,0.90
2022-08-07T10:04:53.183Z,1.10
2022-08-07T10:07:52.656Z,1.13
2022-08-07T10:11:00.197Z,0.60
2022-08-07T10:14:00.281Z,0.77
2022-08-07T10:17:01.873Z,0.90
2022-08-07T10:19:55.065Z,0.80
2022-08-07T10:22:50.937Z,0.73
2022-08-07T10:25:42.050Z,0.65
2022-08-07T10:28:39.203Z,0.85
2022-08-07T10:31:23.087Z,0.75
2022-08-07T10:34:17.965Z,0.77
2022-08-07T10:37:04.100Z,0.90
2022-08-07T10:40:02.554Z,0.82
2022-08-07T10:42:39.442Z,0.80
2022-08-07T10:45:44.055Z,0.60
2022-08-07T10:48:22.398Z,0.50
2022-08-07T10:50:55.270Z,0.40
2022-08-07T10:56:31.357Z,0.70
2022-08-07T10:59:10.644Z,0.60
2022-08-07T11:02:02.605Z,0.90
2022-08-07T11:04:53.317Z,1.20
2022-08-07T11:08:00.466Z,0.70
2022-08-07T11:10:27.553Z,0.60
2022-08-07T11:13:02.221Z,0.50
2022-08-07T11:15:36.100Z,0.50
2022-08-07T11:18:13.296Z,0.70
2022-08-07T11:20:49.444Z,0.60
2022-08-07T11:23:30.258Z,1.00
2022-08-07T11:26:13.130Z,0.65
2022-08-07T11:28:53.396Z,1.55
2022-08-07T11:31:33.407Z,9.10
2022-08-07T11:34:17.025Z,9.77
2022-08-07T11:37:00.444Z,18.50
2022-08-07T11:39:59.843Z,19.60
2022-08-07T11:42:40.076Z,14.27
2022-08-07T11:45:20.340Z,19.42
2022-08-07T11:48:26.806Z,21.88
2022-08-07T11:51:41.373Z,9.10
2022-08-07T11:54:25.507Z,3.35
2022-08-07T11:57:06.724Z,3.20
2022-08-07T12:00:12.653Z,4.15
2022-08-07T12:03:01.160Z,2.67
2022-08-07T12:05:49.013Z,2.40
2022-08-07T12:08:25.924Z,1.73
2022-08-07T12:11:21.128Z,1.08
2022-08-07T12:13:54.783Z,2.22
2022-08-07T12:16:30.531Z,1.00
2022-08-07T12:19:07.575Z,0.60
2022-08-07T12:22:35.877Z,0.50
2022-08-07T12:24:40.184Z,0.60
2022-08-07T12:27:16.236Z,0.47
2022-08-07T12:29:52.747Z,0.90
2022-08-07T12:32:28.856Z,0.70
2022-08-07T12:35:03.234Z,0.50
2022-08-07T12:38:08.942Z,0.45
2022-08-07T12:40:47.297Z,0.50
2022-08-07T12:44:03.357Z,1.00
2022-08-07T12:46:26.411Z,1.00
2022-08-07T12:49:25.653Z,0.50
2022-08-07T12:52:13.850Z,0.63
2022-08-07T12:54:54.658Z,0.68
2022-08-07T12:57:38.773Z,0.57
2022-08-07T13:00:31.115Z,0.60
2022-08-07T13:03:23.019Z,0.60
2022-08-07T13:06:27.008Z,0.57
2022-08-07T13:09:02.642Z,0.70
2022-08-07T13:12:02.035Z,0.50
2022-08-07T13:14:52.646Z,0.60
2022-08-07T13:17:40.666Z,0.77
2022-08-07T13:20:21.767Z,0.85
2022-08-07T13:23:03.868Z,1.88
2022-08-07T13:25:41.734Z,0.50
2022-08-07T13:28:18.355Z,0.40
2022-08-07T13:31:06.538Z,0.60
2022-08-07T13:34:33.843Z,0.47
2022-08-07T13:36:44.317Z,0.60
2022-08-07T13:42:10.151Z,0.50
2022-08-07T13:47:15.017Z,0.50
2022-08-07T13:50:35.355Z,0.60
2022-08-07T13:52:40.960Z,0.60
2022-08-07T13:55:25.494Z,0.65
2022-08-07T13:58:28.116Z,0.70
2022-08-07T14:01:09.052Z,0.65
2022-08-07T14:04:07.867Z,0.52
2022-08-07T14:06:34.376Z,0.60
2022-08-07T14:09:04.959Z,0.50
2022-08-07T14:11:53.640Z,0.90
2022-08-07T14:14:30.683Z,0.57
2022-08-07T14:17:32.442Z,0.50
2022-08-07T14:22:40.944Z,0.70
2022-08-07T14:22:49.789Z,0.70
2022-08-07T14:25:18.765Z,0.70
2022-08-07T14:30:40.701Z,0.70
2022-08-07T14:33:10.030Z,0.60
2022-08-07T14:38:33.387Z,0.60
2022-08-07T14:41:04.147Z,0.57
2022-08-07T14:43:57.948Z,0.70
2022-08-07T14:46:31.254Z,0.60
2022-08-07T14:49:17.585Z,0.70
2022-08-07T14:52:04.500Z,0.80
2022-08-07T14:54:43.061Z,0.70
2022-08-07T14:57:18.683Z,0.55
2022-08-07T15:02:56.931Z,0.50
2022-08-07T15:05:26.674Z,0.88
2022-08-07T15:07:58.511Z,0.45
2022-08-07T15:10:29.903Z,0.60
2022-08-07T15:13:11.463Z,0.80
2022-08-07T15:15:43.750Z,0.85
2022-08-07T15:18:33.659Z,0.73
2022-08-07T15:21:07.919Z,0.70
2022-08-07T15:25:15.716Z,0.70
2022-08-07T15:26:37.442Z,0.70
2022-08-07T15:30:04.651Z,0.90
2022-08-07T15:32:05.103Z,0.60
2022-08-07T15:34:37.453Z,1.10
2022-08-07T15:37:27.685Z,0.60
2022-08-07T15:40:00.392Z,0.57
2022-08-07T15:42:51.850Z,0.60
2022-08-07T15:48:25.652Z,0.70
2022-08-07T15:51:08.945Z,0.63
2022-08-07T15:53:42.245Z,0.68
2022-08-07T15:56:25.412Z,0.50
2022-08-07T15:58:57.824Z,0.60
2022-08-07T16:01:39.068Z,0.70
2022-08-07T16:04:15.154Z,0.80
2022-08-07T16:06:50.601Z,0.80
2022-08-07T16:09:41.100Z,0.90
2022-08-07T16:12:31.795Z,0.90
2022-08-07T16:15:57.353Z,1.13
2022-08-07T16:18:14.644Z,1.20
2022-08-07T16:21:56.785Z,1.40
2022-08-07T16:24:01.774Z,0.90
2022-08-07T16:26:59.622Z,0.80
2022-08-07T16:30:10.830Z,0.60
2022-08-07T16:32:46.611Z,0.77
2022-08-07T16:35:51.719Z,0.90
2022-08-07T16:39:00.605Z,0.90
2022-08-07T16:41:48.760Z,0.70
2022-08-07T16:45:19.109Z,0.80
2022-08-07T16:47:57.115Z,1.40
2022-08-07T16:50:41.903Z,1.05
2022-08-07T16:54:06.172Z,0.80
2022-08-07T16:56:53.523Z,0.90
2022-08-07T16:59:46.335Z,0.80
2022-08-07T17:03:04.837Z,0.70
2022-08-07T17:06:19.818Z,0.85
2022-08-07T17:09:10.561Z,0.60
2022-08-07T17:12:05.361Z,0.90
2022-08-07T17:14:33.175Z,0.88
2022-08-07T17:17:06.030Z,0.90
2022-08-07T17:20:02.396Z,0.90
2022-08-07T17:22:37.676Z,0.70
2022-08-07T17:25:13.564Z,0.70
2022-08-07T17:27:53.716Z,1.10
2022-08-07T17:30:27.827Z,0.93
2022-08-07T17:34:10.162Z,1.00
2022-08-07T17:36:03.818Z,1.00
2022-08-07T17:38:37.344Z,4.80
2022-08-07T17:44:05.752Z,0.80
2022-08-07T17:46:43.021Z,0.80
2022-08-07T17:49:23.038Z,0.85
2022-08-07T17:52:00.278Z,0.70
2022-08-07T17:54:53.069Z,0.65
2022-08-07T17:57:56.485Z,0.80
2022-08-07T18:00:32.734Z,0.70
2022-08-07T18:03:09.367Z,0.90
2022-08-07T18:06:03.549Z,0.90
2022-08-07T18:09:01.153Z,1.08
2022-08-07T18:12:16.351Z,0.90
2022-08-07T18:14:37.422Z,0.80
2022-08-07T18:18:45.766Z,0.70
2022-08-07T18:21:11.506Z,1.42
2022-08-07T18:23:07.091Z,1.20
2022-08-07T18:26:01.315Z,1.00
2022-08-07T18:28:58.609Z,1.20
2022-08-07T18:31:50.167Z,1.00
2022-08-07T18:34:39.293Z,0.90
2022-08-07T18:38:57.998Z,0.90
2022-08-07T18:40:43.957Z,0.90
2022-08-07T18:43:37.014Z,0.95
2022-08-07T18:46:27.214Z,0.80
2022-08-07T18:50:05.245Z,0.90
2022-08-07T18:52:37.660Z,0.82
2022-08-07T18:54:57.091Z,2.30
2022-08-07T18:57:38.857Z,1.50
2022-08-07T19:00:32.643Z,1.58
2022-08-07T19:03:03.848Z,1.20
2022-08-07T19:06:03.355Z,1.57
2022-08-07T19:08:46.337Z,1.30
2022-08-07T19:11:36.533Z,1.30
2022-08-07T19:14:17.356Z,1.52
2022-08-07T19:17:06.129Z,1.48
2022-08-07T19:19:46.189Z,1.10
2022-08-07T19:22:30.765Z,1.20
2022-08-07T19:25:06.370Z,1.20
2022-08-07T19:28:56.835Z,1.00
2022-08-07T19:31:00.065Z,1.20
2022-08-07T19:33:33.555Z,1.30
2022-08-07T19:36:08.850Z,1.38
2022-08-07T19:38:52.912Z,1.15
2022-08-07T19:41:44.047Z,1.20
2022-08-07T19:44:21.794Z,1.17
2022-08-07T19:46:57.689Z,1.33
2022-08-07T19:49:57.209Z,1.60
2022-08-07T19:52:18.758Z,1.50
2022-08-07T19:54:56.448Z,1.45
2022-08-07T19:58:03.414Z,1.27
2022-08-07T20:00:28.553Z,1.30
2022-08-07T20:03:02.776Z,1.25
2022-08-07T20:06:01.278Z,1.05
2022-08-07T20:08:24.717Z,1.15
2022-08-07T20:11:02.202Z,1.30
2022-08-07T20:13:43.229Z,1.30
2022-08-07T20:16:15.785Z,1.65
2022-08-07T20:19:06.063Z,1.23
2022-08-07T20:21:46.966Z,1.00
2022-08-07T20:24:20.422Z,1.17
2022-08-07T20:26:52.201Z,1.30
2022-08-07T20:29:49.323Z,1.10
2022-08-07T20:32:23.102Z,1.20
2022-08-07T20:34:57.130Z,1.15
2022-08-07T20:37:37.011Z,1.70
2022-08-07T20:40:31.170Z,1.10
2022-08-07T20:43:14.457Z,1.15
2022-08-07T20:46:26.516Z,1.30
2022-08-07T20:49:55.146Z,1.45
2022-08-07T20:51:36.130Z,12.73
2022-08-07T20:54:12.373Z,14.18
2022-08-07T20:56:51.548Z,5.38
2022-08-07T21:00:04.539Z,1.90
2022-08-07T21:02:38.402Z,1.70
2022-08-07T21:05:16.573Z,1.38
2022-08-07T21:07:48.781Z,1.55
2022-08-07T21:10:25.260Z,1.30
2022-08-07T21:13:03.985Z,1.30
2022-08-07T21:15:47.834Z,1.30
2022-08-07T21:18:29.437Z,1.23
2022-08-07T21:21:01.616Z,1.15
2022-08-07T21:23:49.358Z,1.13
2022-08-07T21:26:32.264Z,1.05
2022-08-07T21:29:15.983Z,1.10
2022-08-07T21:32:44.209Z,1.10
2022-08-07T21:34:48.499Z,1.10
2022-08-07T21:37:21.767Z,1.15
2022-08-07T21:39:56.800Z,0.88
2022-08-07T21:42:42.275Z,1.20
2022-08-07T21:46:08.492Z,1.00
2022-08-07T21:48:28.231Z,1.00
2022-08-07T21:51:03.246Z,1.10
2022-08-07T21:53:37.197Z,0.90
2022-08-07T21:56:36.062Z,0.90
2022-08-07T21:59:09.204Z,1.13
2022-08-07T22:02:07.380Z,1.10
2022-08-07T22:04:53.783Z,1.10
2022-08-07T22:07:31.524Z,1.10
2022-08-07T22:10:18.079Z,1.10
2022-08-07T22:12:51.981Z,1.08
2022-08-07T22:16:39.515Z,1.20
2022-08-07T22:18:24.756Z,1.10
2022-08-07T22:20:59.768Z,1.30
2022-08-07T22:23:40.381Z,1.10
2022-08-07T22:26:19.413Z,1.30
2022-08-07T22:28:52.944Z,1.10
2022-08-07T22:31:45.301Z,1.30
2022-08-07T22:34:28.874Z,1.65
2022-08-07T22:37:09.434Z,1.15
2022-08-07T22:39:52.550Z,1.85
2022-08-07T22:42:25.562Z,1.38
2022-08-07T22:44:59.714Z,1.25
2022-08-07T22:47:58.015Z,1.20
2022-08-07T22:50:53.202Z,1.20
2022-08-07T22:54:07.709Z,1.40
2022-08-07T22:56:34.797Z,1.70
2022-08-07T22:59:41.354Z,1.70
2022-08-07T23:02:27.339Z,1.48
2022-08-07T23:06:07.200Z,1.88
2022-08-07T23:08:30.834Z,2.13
2022-08-07T23:11:18.047Z,1.92
2022-08-07T23:14:10.843Z,2.10
2022-08-07T23:16:59.049Z,1.60
2022-08-07T23:19:57.912Z,1.50
2022-08-07T23:22:41.389Z,1.30
2022-08-07T23:25:35.582Z,1.27
2022-08-07T23:28:28.592Z,1.20
2022-08-07T23:31:13.813Z,1.40
2022-08-07T23:34:22.687Z,1.42
2022-08-07T23:37:20.138Z,1.50
2022-08-07T23:40:01.811Z,1.48
2022-08-07T23:42:53.174Z,1.40
2022-08-07T23:45:33.035Z,1.45
2022-08-07T23:48:36.940Z,1.40
2022-08-07T23:52:57.839Z,1.30
2022-08-07T23:54:08.339Z,1.50
2022-08-07T23:57:01.919Z,1.50
